Time,TemperatureF,DewpointF,PressureIn,WindDirection,WindDirectionDegrees,WindSpeedMPH,WindSpeedGustMPH,Humidity,HourlyPrecipIn,Conditions,Clouds,dailyrainin,SoftwareType,DateUTC
2013-07-08 00:29:00,59.4,59.0,30.07,NNE,16,0.0,1.0,99,0.00,,,0.00,weatherlink.com 1.10,2013-07-08 04:29:00,
2013-07-08 00:44:00,59.6,59.0,30.07,North,5,0.0,3.0,99,0.00,,,0.00,weatherlink.com 1.10,2013-07-08 04:44:00,
2013-07-08 00:59:00,59.8,60.0,30.06,North,355,0.0,2.0,99,0.00,,,0.00,weatherlink.com 1.10,2013-07-08 04:59:00,
2013-07-08 01:14:00,59.8,60.0,30.06,North,355,0.0,1.0,99,0.00,,,0.00,weatherlink.com 1.10,2013-07-08 05:14:00,
2013-07-08 01:29:00,59.7,60.0,30.06,NW,304,0.0,4.0,99,0.00,,,0.00,weatherlink.com 1.10,2013-07-08 05:29:00,
2013-07-08 01:44:00,59.6,59.0,30.06,NW,304,0.0,1.0,99,0.00,,,0.00,weatherlink.com 1.10,2013-07-08 05:44:00,
2013-07-08 01:59:00,59.6,59.0,30.05,WNW,287,0.0,4.0,99,0.00,,,0.00,weatherlink.com 1.10,2013-07-08 05:59:00,
2013-07-08 02:14:00,59.5,59.0,30.06,NW,306,2.0,4.0,99,0.00,,,0.00,weatherlink.com 1.10,2013-07-08 06:14:00,
2013-07-08 02:29:00,59.5,59.0,30.05,NW,305,1.0,5.0,99,0.00,,,0.00,weatherlink.com 1.10,2013-07-08 06:29:00,
2013-07-08 02:44:00,59.4,59.0,30.06,NW,321,1.0,6.0,99,0.00,,,0.00,weatherlink.com 1.10,2013-07-08 06:44:00,
2013-07-08 02:59:00,59.1,59.0,30.05,NW,310,1.0,7.0,99,0.00,,,0.00,weatherlink.com 1.10,2013-07-08 06:59:00,
2013-07-08 03:14:00,58.9,59.0,30.06,NW,306,0.0,9.0,99,0.00,,,0.00,weatherlink.com 1.10,2013-07-08 07:14:00,
2013-07-08 03:29:00,58.9,59.0,30.05,NNW,334,0.0,5.0,99,0.00,,,0.00,weatherlink.com 1.10,2013-07-08 07:29:00,
2013-07-08 03:44:00,58.8,59.0,30.05,WNW,298,2.0,7.0,99,0.00,,,0.00,weatherlink.com 1.10,2013-07-08 07:44:00,
2013-07-08 03:59:00,58.9,59.0,30.05,NE,55,2.0,4.0,99,0.00,,,0.00,weatherlink.com 1.10,2013-07-08 07:59:00,
2013-07-08 04:14:00,58.8,59.0,30.05,NW,311,3.0,6.0,99,0.00,,,0.00,weatherlink.com 1.10,2013-07-08 08:14:00,
2013-07-08 04:29:00,58.5,58.0,30.05,WNW,302,6.0,10.0,99,0.00,,,0.00,weatherlink.com 1.10,2013-07-08 08:29:00,
2013-07-08 04:44:00,58.2,58.0,30.05,WNW,300,7.0,10.0,99,0.00,,,0.00,weatherlink.com 1.10,2013-07-08 08:44:00,
2013-07-08 04:59:00,58.3,58.0,30.05,NW,308,4.0,9.0,99,0.00,,,0.00,weatherlink.com 1.10,2013-07-08 08:59:00,
2013-07-08 05:14:00,58.1,58.0,30.06,NNW,342,1.0,7.0,99,0.00,,,0.00,weatherlink.com 1.10,2013-07-08 09:14:00,
2013-07-08 05:29:00,58.0,58.0,30.06,NW,312,1.0,9.0,99,0.00,,,0.00,weatherlink.com 1.10,2013-07-08 09:29:00,
2013-07-08 05:44:00,58.0,58.0,30.06,NNE,28,2.0,5.0,99,0.00,,,0.00,weatherlink.com 1.10,2013-07-08 09:44:00,
2013-07-08 05:59:00,57.9,58.0,30.07,WNW,302,8.0,8.0,99,0.00,,,0.00,weatherlink.com 1.10,2013-07-08 09:59:00,
2013-07-08 06:14:00,57.8,58.0,30.07,NW,314,6.0,8.0,99,0.00,,,0.00,weatherlink.com 1.10,2013-07-08 10:14:00,
2013-07-08 06:29:00,57.8,58.0,30.07,West,280,1.0,11.0,99,0.00,,,0.00,weatherlink.com 1.10,2013-07-08 10:29:00,
2013-07-08 06:44:00,57.8,58.0,30.07,NW,304,5.0,10.0,99,0.00,,,0.00,weatherlink.com 1.10,2013-07-08 10:44:00,
2013-07-08 06:59:00,57.8,58.0,30.07,WNW,296,2.0,12.0,99,0.00,,,0.00,weatherlink.com 1.10,2013-07-08 10:59:00,
2013-07-08 07:14:00,57.9,58.0,30.07,NW,318,4.0,11.0,99,0.00,,,0.00,weatherlink.com 1.10,2013-07-08 11:14:00,
2013-07-08 07:29:00,57.9,58.0,30.07,NW,308,5.0,11.0,99,0.00,,,0.00,weatherlink.com 1.10,2013-07-08 11:29:00,
2013-07-08 07:44:00,57.9,58.0,30.08,NW,319,7.0,12.0,99,0.00,,,0.00,weatherlink.com 1.10,2013-07-08 11:44:00,
2013-07-08 07:59:00,57.9,58.0,30.08,NW,317,2.0,9.0,99,0.00,,,0.00,weatherlink.com 1.10,2013-07-08 11:59:00,
2013-07-08 08:14:00,57.9,58.0,30.09,SW,219,0.0,9.0,99,0.00,,,0.00,weatherlink.com 1.10,2013-07-08 12:14:00,
2013-07-08 08:29:00,58.1,58.0,30.09,SSW,212,4.0,10.0,99,0.00,,,0.00,weatherlink.com 1.10,2013-07-08 12:29:00,
2013-07-08 08:44:00,58.8,59.0,30.09,NW,315,5.0,11.0,99,0.00,,,0.00,weatherlink.com 1.10,2013-07-08 12:44:00,
2013-07-08 08:59:00,58.9,59.0,30.10,West,280,4.0,8.0,99,0.00,,,0.00,weatherlink.com 1.10,2013-07-08 12:59:00,
2013-07-08 09:14:00,59.7,60.0,30.10,West,261,1.0,7.0,99,0.00,,,0.00,weatherlink.com 1.10,2013-07-08 13:14:00,
2013-07-08 09:29:00,59.3,59.0,30.11,SW,214,9.0,12.0,97,0.00,,,0.00,weatherlink.com 1.10,2013-07-08 13:29:00,
2013-07-08 09:44:00,60.2,59.0,30.10,West,262,4.0,13.0,97,0.00,,,0.00,weatherlink.com 1.10,2013-07-08 13:44:00,
2013-07-08 09:59:00,61.0,60.0,30.11,West,268,3.0,11.0,95,0.00,,,0.00,weatherlink.com 1.10,2013-07-08 13:59:00,
2013-07-08 10:14:00,62.1,60.0,30.11,NNW,332,4.0,9.0,94,0.00,,,0.00,weatherlink.com 1.10,2013-07-08 14:14:00,
2013-07-08 10:30:00,62.4,60.0,30.12,NNE,23,1.0,7.0,93,0.00,,,0.00,weatherlink.com 1.10,2013-07-08 14:30:00,
2013-07-08 10:44:00,62.3,60.0,30.12,WSW,248,0.0,10.0,91,0.00,,,0.00,weatherlink.com 1.10,2013-07-08 14:44:00,
2013-07-08 11:00:00,63.6,60.0,30.12,WSW,243,5.0,8.0,89,0.00,,,0.00,weatherlink.com 1.10,2013-07-08 15:00:00,
2013-07-08 11:15:00,64.3,60.0,30.12,West,273,1.0,6.0,87,0.00,,,0.00,weatherlink.com 1.10,2013-07-08 15:15:00,
2013-07-08 11:30:00,65.1,61.0,30.12,WSW,240,3.0,8.0,86,0.00,,,0.00,weatherlink.com 1.10,2013-07-08 15:30:00,
2013-07-08 11:45:00,65.5,60.0,30.12,NW,321,4.0,7.0,82,0.00,,,0.00,weatherlink.com 1.10,2013-07-08 15:45:00,
2013-07-08 12:00:00,66.3,61.0,30.12,West,268,3.0,7.0,82,0.00,,,0.00,weatherlink.com 1.10,2013-07-08 16:00:00,
2013-07-08 12:15:00,65.6,60.0,30.12,WNW,302,2.0,4.0,83,0.00,,,0.00,weatherlink.com 1.10,2013-07-08 16:15:00,
2013-07-08 12:30:00,66.4,60.0,30.12,NNW,327,2.0,6.0,81,0.00,,,0.00,weatherlink.com 1.10,2013-07-08 16:30:00,
2013-07-08 12:45:00,67.1,61.0,30.12,WSW,257,0.0,7.0,81,0.00,,,0.00,weatherlink.com 1.10,2013-07-08 16:45:00,
2013-07-08 13:15:00,67.9,59.0,30.12,West,275,5.0,10.0,74,0.00,,,0.00,weatherlink.com 1.10,2013-07-08 17:15:00,
2013-07-08 13:30:00,68.4,59.0,30.12,SSW,203,4.0,8.0,72,0.00,,,0.00,weatherlink.com 1.10,2013-07-08 17:30:00,
2013-07-08 13:45:00,68.4,59.0,30.12,West,267,1.0,8.0,73,0.00,,,0.00,weatherlink.com 1.10,2013-07-08 17:45:00,
2013-07-08 14:00:00,69.0,60.0,30.12,WSW,256,3.0,8.0,72,0.00,,,0.00,weatherlink.com 1.10,2013-07-08 18:00:00,
2013-07-08 14:15:00,68.9,60.0,30.11,NE,34,3.0,7.0,73,0.00,,,0.00,weatherlink.com 1.10,2013-07-08 18:15:00,
2013-07-08 14:30:00,69.5,58.0,30.11,SW,216,0.0,6.0,67,0.00,,,0.00,weatherlink.com 1.10,2013-07-08 18:30:00,
2013-07-08 15:15:00,68.6,60.0,30.10,West,265,4.0,7.0,74,0.00,,,0.00,weatherlink.com 1.10,2013-07-08 19:15:00,
2013-07-08 15:30:00,68.2,60.0,30.10,NW,317,5.0,7.0,74,0.00,,,0.00,weatherlink.com 1.10,2013-07-08 19:30:00,
2013-07-08 16:00:00,67.9,59.0,30.09,West,276,5.0,7.0,73,0.00,,,0.00,weatherlink.com 1.10,2013-07-08 20:00:00,
2013-07-08 16:15:00,68.1,60.0,30.09,NW,313,2.0,6.0,74,0.00,,,0.00,weatherlink.com 1.10,2013-07-08 20:15:00,
2013-07-08 16:30:00,68.1,60.0,30.08,SSW,208,5.0,7.0,74,0.00,,,0.00,weatherlink.com 1.10,2013-07-08 20:30:00,
2013-07-08 17:15:00,69.4,60.0,30.06,NW,306,0.0,8.0,72,0.00,,,0.00,weatherlink.com 1.10,2013-07-08 21:15:00,
2013-07-08 17:30:00,69.5,61.0,30.06,NW,313,3.0,3.0,73,0.00,,,0.00,weatherlink.com 1.10,2013-07-08 21:30:00,
2013-07-08 17:45:00,69.0,62.0,30.06,WSW,253,4.0,5.0,77,0.00,,,0.00,weatherlink.com 1.10,2013-07-08 21:45:00,
2013-07-08 18:15:00,68.7,62.0,30.06,NW,323,0.0,4.0,78,0.00,,,0.00,weatherlink.com 1.10,2013-07-08 22:15:00,
2013-07-08 18:45:00,66.7,62.0,30.05,West,274,2.0,7.0,84,0.00,,,0.00,weatherlink.com 1.10,2013-07-08 22:45:00,
2013-07-08 19:30:00,65.4,62.0,30.06,SSW,195,0.0,3.0,87,0.00,,,0.00,weatherlink.com 1.10,2013-07-08 23:30:00,
2013-07-08 19:45:00,65.0,61.0,30.06,South,186,0.0,4.0,88,0.00,,,0.00,weatherlink.com 1.10,2013-07-08 23:45:00,
2013-07-08 20:00:00,64.7,62.0,30.05,South,182,0.0,4.0,89,0.00,,,0.00,weatherlink.com 1.10,2013-07-09 00:00:00,
2013-07-08 20:15:00,64.3,61.0,30.05,South,182,0.0,0.0,90,0.00,,,0.00,weatherlink.com 1.10,2013-07-09 00:15:00,
2013-07-08 20:30:00,63.5,61.0,30.06,South,180,0.0,1.0,91,0.00,,,0.00,weatherlink.com 1.10,2013-07-09 00:30:00,
2013-07-08 20:45:00,62.7,60.0,30.06,South,180,0.0,1.0,91,0.00,,,0.00,weatherlink.com 1.10,2013-07-09 00:45:00,
2013-07-08 21:00:00,62.7,60.0,30.06,South,180,0.0,1.0,92,0.00,,,0.00,weatherlink.com 1.10,2013-07-09 01:00:00,
2013-07-08 21:30:00,62.6,61.0,30.07,ESE,121,2.0,3.0,94,0.00,,,0.00,weatherlink.com 1.10,2013-07-09 01:30:00,
2013-07-08 21:45:00,62.5,61.0,30.08,ESE,121,1.0,3.0,96,0.00,,,0.00,weatherlink.com 1.10,2013-07-09 01:45:00,
2013-07-08 22:45:00,62.7,62.0,30.09,ESE,114,0.0,2.0,97,0.00,,,0.00,weatherlink.com 1.10,2013-07-09 02:45:00,
2013-07-08 23:00:00,62.5,62.0,30.09,East,100,0.0,3.0,98,0.00,,,0.00,weatherlink.com 1.10,2013-07-09 03:00:00,
2013-07-08 23:30:00,62.4,62.0,30.08,East,101,1.0,2.0,98,0.00,,,0.00,weatherlink.com 1.10,2013-07-09 03:30:00,